Hovedside
METAR-TAF:

METAR-TAF

Lufthavner :

Mitiga International Airport

Tripoli, Libya

breddegrad: 32-54N, lengdegrad: 13-17E, høyde over havet: 11 m

METAR: fraværende

Tid: 14:14 (12:14 UTC)

Varsel

Denne rapporten ble laget for 25 timer og 14 minutter siden, klokken 11:00 UTC
Varsel gyldig fra 17. klokken 12 UTC til 18. klokken 12 UTC
Vind 15 kt fra Vest
Sikt 10 km eller mer
Spredte skyer i en høyde av 3000 ft
Blir
fra 18. klokken 06 UTC til 18. klokken 08 UTC
Vind 15 kt fra Vest-nordvest med vindkast opp mot 25 kt
Sikt: 8000 m

TAF: HLLM 171100Z 1712/1812 28015KT 9999 SCT030 BECMG 1806/1808 30015G25KT 8000 NSC

Værobservasjoner og værvarsel for over 4000 flyplasser (METAR- og TAF-rapporter).

Tilgjengelige stasjoner er representert av de røde og gule prikkene på kartet.

Hold musepekeren over prikken for å se navnet på stasjonen.

Klikk så for å se værobservasjoner og -varsler.

For å forandre kartet kan du klikke på den grønne knappen med svart kryss for å zoome inn, på den grønne knappen med strek for å zoome ut, eller på de grønne pilene for å se tilstøtende kart.


METAR-TAF: